Terminal Aerodrome Forecast
Issued by NWS

Home | Current Version | Previous Version | Text Only | Print | Product List | Glossary On
Versions: 1 2 3 4 5 6 7 8 9 10 11 12 13 14 15 16 17 18 19 20 21 22 23
000
FTUS45 KABQ 011814 AAA
TAFLVS
TAF AMD
KLVS 011814Z 0118/0218 35008KT P6SM VCTS SCT050CB BKN080
      TEMPO 0120/0124 VRB15G25KT -TSRA OVC040CB
     FM020200 21009KT P6SM VCSH BKN050=

USA.gov is the U.S. government's official web portal to all federal, state and local government web resources and services.